Time;durP1;ratioP1;P1;durP2;ratioP2;P2;SDS_P1;SDS_P2;PMS_P1;PMS_P2;Temp;Humidity;BMP_temperature;BMP_pressure;BME280_temperature;BME280_humidity;BME280_pressure;Samples;Min_cycle;Max_cycle;Signal;HPM_P1;HPM_P2
2021/04/10 00:04:40;;;;;;;24.63;12.85;;;;;;;3.60;60.71;99679.97;233886;1174;115404;-67
2021/04/10 00:09:45;;;;;;;18.13;13.08;;;;;;;3.62;60.66;99675.32;235027;1174;115351;-65
2021/04/10 00:14:49;;;;;;;29.65;14.98;;;;;;;3.66;61.22;99678.39;234095;1174;115906;-68
2021/04/10 00:19:52;;;;;;;20.20;11.73;;;;;;;3.70;60.55;99679.61;234469;1174;115581;-68
2021/04/10 00:24:55;;;;;;;18.08;12.10;;;;;;;3.76;61.02;99672.77;235189;1173;114848;-67
2021/04/10 00:29:59;;;;;;;15.50;9.20;;;;;;;3.83;60.90;99668.36;234410;1174;115964;-67
2021/04/10 00:35:07;;;;;;;15.40;10.43;;;;;;;3.89;60.16;99657.86;232600;1174;115178;-67
2021/04/10 00:40:11;;;;;;;21.33;10.13;;;;;;;3.94;60.33;99665.20;233082;1174;115469;-68
2021/04/10 00:45:16;;;;;;;21.47;13.20;;;;;;;3.94;61.65;99663.38;232552;1174;115382;-67
2021/04/10 00:50:20;;;;;;;17.58;10.15;;;;;;;3.95;60.10;99667.64;233242;1174;115629;-67
2021/04/10 00:55:24;;;;;;;18.60;10.05;;;;;;;3.93;59.72;99674.12;232865;1174;115238;-67
2021/04/10 01:00:28;;;;;;;17.58;8.70;;;;;;;3.90;61.19;99667.41;232445;1174;116430;-67
2021/04/10 01:05:33;;;;;;;13.95;10.35;;;;;;;3.90;61.04;99667.41;233315;1176;116864;-66
2021/04/10 01:10:36;;;;;;;17.83;11.97;;;;;;;3.87;60.97;99669.61;232732;1174;115937;-66
2021/04/10 01:16:00;;;;;;;18.93;9.47;;;;;;;3.82;61.23;99667.55;232569;1175;116560;-67
2021/04/10 01:21:03;;;;;;;16.87;9.83;;;;;;;3.82;61.44;99669.36;232916;1174;116226;-66
2021/04/10 01:26:37;;;;;;;22.45;10.98;;;;;;;3.77;62.17;99679.67;232948;1174;116168;-66
2021/04/10 01:31:53;;;;;;;19.88;11.93;;;;;;;3.68;62.12;99666.63;232674;1174;115739;-64
2021/04/10 01:37:08;;;;;;;15.50;9.37;;;;;;;3.63;61.87;99660.32;233195;1174;115795;-64
2021/04/10 01:42:14;;;;;;;25.80;12.40;;;;;;;3.60;62.31;99668.61;233285;1174;115822;-64
2021/04/10 01:47:20;;;;;;;23.05;9.70;;;;;;;3.55;63.81;99671.00;232748;1174;116163;-65
2021/04/10 01:52:24;;;;;;;23.13;13.60;;;;;;;3.53;62.09;99660.64;232821;1174;114849;-64
2021/04/10 01:57:29;;;;;;;21.43;12.00;;;;;;;3.56;63.54;99662.90;233318;1175;115264;-64
2021/04/10 02:02:40;;;;;;;19.90;9.80;;;;;;;3.52;64.28;99659.02;233222;1174;115717;-64
2021/04/10 02:07:49;;;;;;;13.43;10.28;;;;;;;3.53;62.94;99659.83;234065;1174;115563;-64
2021/04/10 02:12:54;;;;;;;17.33;10.70;;;;;;;3.47;64.46;99664.03;234575;1170;114712;-64
2021/04/10 02:17:59;;;;;;;15.10;9.00;;;;;;;3.23;66.15;99667.08;234987;1174;115718;-66
2021/04/10 02:23:03;;;;;;;21.93;10.53;;;;;;;3.06;64.89;99670.98;235012;1171;114707;-65
2021/04/10 02:28:06;;;;;;;22.35;10.60;;;;;;;2.93;66.88;99667.20;234850;1167;115275;-64
2021/04/10 02:33:13;;;;;;;21.77;11.30;;;;;;;2.82;66.57;99670.30;234518;1174;115866;-64
2021/04/10 02:38:20;;;;;;;20.35;11.25;;;;;;;2.61;68.94;99678.99;233344;1174;115414;-64
2021/04/10 02:43:27;;;;;;;25.25;12.98;;;;;;;2.42;69.46;99669.05;232922;1176;116562;-64
2021/04/10 02:48:48;;;;;;;20.98;11.58;;;;;;;2.30;68.88;99671.33;233397;1174;115912;-65
2021/04/10 02:53:54;;;;;;;20.68;12.88;;;;;;;2.21;68.17;99674.22;233925;1174;115718;-63
2021/04/10 02:59:00;;;;;;;18.48;11.65;;;;;;;2.17;68.16;99662.44;232768;1174;117000;-63
2021/04/10 03:04:04;;;;;;;17.60;10.80;;;;;;;2.05;71.11;99672.61;232714;1176;116316;-63
2021/04/10 03:09:08;;;;;;;23.88;13.58;;;;;;;2.00;71.59;99674.95;232693;1174;115844;-63
2021/04/10 03:14:12;;;;;;;22.75;13.40;;;;;;;1.92;71.09;99677.67;232623;1175;116156;-63
2021/04/10 03:19:16;;;;;;;20.63;11.20;;;;;;;1.71;70.52;99674.94;232761;1174;117644;-63
2021/04/10 03:24:20;;;;;;;18.00;10.90;;;;;;;1.52;74.08;99671.83;232821;1174;115833;-64
2021/04/10 03:29:25;;;;;;;15.25;9.08;;;;;;;1.22;72.88;99670.91;232772;1174;115540;-64
2021/04/10 03:34:30;;;;;;;21.95;12.00;;;;;;;1.00;73.42;99672.55;232718;1174;116472;-66
2021/04/10 03:39:35;;;;;;;23.43;14.35;;;;;;;0.91;74.95;99673.62;232700;1174;115890;-63
2021/04/10 03:44:38;;;;;;;23.10;12.55;;;;;;;0.85;74.40;99674.30;233525;1175;115610;-63
2021/04/10 03:50:06;;;;;;;19.40;11.60;;;;;;;0.83;74.78;99680.72;232906;1174;115654;-63
2021/04/10 03:55:13;;;;;;;20.30;12.23;;;;;;;0.74;74.77;99679.94;233129;1174;115873;-62
2021/04/10 04:00:17;;;;;;;17.00;10.56;;;;;;;0.81;75.24;99678.27;234380;1174;115940;-64
2021/04/10 04:05:22;;;;;;;24.60;12.83;;;;;;;0.86;76.43;99691.69;233075;1174;115761;-64
2021/04/10 04:10:25;;;;;;;18.65;12.70;;;;;;;0.82;74.55;99679.08;234384;1174;115680;-64
2021/04/10 04:15:29;;;;;;;14.00;10.53;;;;;;;0.79;74.73;99677.62;234701;1168;115300;-64
2021/04/10 04:20:32;;;;;;;19.60;11.18;;;;;;;0.85;75.06;99687.42;234891;1174;114543;-64
2021/04/10 04:25:36;;;;;;;20.85;11.45;;;;;;;0.93;74.97;99689.98;235018;1174;115463;-64
2021/04/10 04:30:40;;;;;;;26.38;13.23;;;;;;;1.04;75.04;99696.64;234963;1174;115284;-65
2021/04/10 04:35:47;;;;;;;21.83;14.27;;;;;;;1.15;75.64;99700.69;234816;1174;114687;-65
2021/04/10 04:40:51;;;;;;;21.80;10.15;;;;;;;1.15;75.06;99704.13;234970;1169;114933;-65
2021/04/10 04:45:54;;;;;;;15.13;10.30;;;;;;;1.19;74.81;99707.22;234781;1173;114682;-65
2021/04/10 04:51:02;;;;;;;21.10;12.13;;;;;;;1.31;74.38;99701.37;234103;1174;115351;-66
2021/04/10 04:56:06;;;;;;;20.63;11.53;;;;;;;1.62;73.88;99706.53;233737;1174;115426;-65
2021/04/10 05:01:10;;;;;;;25.17;13.27;;;;;;;1.86;73.38;99709.92;233716;1174;115760;-65
2021/04/10 05:06:14;;;;;;;22.60;13.75;;;;;;;1.95;73.31;99717.56;233380;1174;115963;-65
2021/04/10 05:11:18;;;;;;;38.10;20.43;;;;;;;2.14;71.07;99726.72;232579;1174;115809;-67
2021/04/10 05:16:22;;;;;;;29.08;19.83;;;;;;;2.35;69.99;99720.76;232521;1174;115195;-63
2021/04/10 05:21:26;;;;;;;28.35;17.70;;;;;;;2.55;71.50;99726.27;233915;1174;115217;-65
2021/04/10 05:26:29;;;;;;;32.65;15.65;;;;;;;2.69;71.14;99728.08;232587;1174;115521;-65
2021/04/10 05:31:34;;;;;;;29.55;16.80;;;;;;;2.89;72.54;99737.02;232828;1174;116568;-65
2021/04/10 05:36:38;;;;;;;32.33;18.77;;;;;;;3.17;70.98;99733.67;232579;1174;116054;-66
2021/04/10 05:41:41;;;;;;;24.30;17.58;;;;;;;3.54;72.21;99741.34;232978;1174;115909;-66
2021/04/10 05:46:45;;;;;;;25.58;17.08;;;;;;;4.00;73.57;99746.16;232631;1174;114796;-65
2021/04/10 05:51:49;;;;;;;27.30;14.20;;;;;;;4.46;71.04;99743.83;232701;1174;115419;-66
2021/04/10 05:56:52;;;;;;;18.20;9.43;;;;;;;4.92;67.28;99738.74;233387;1174;115613;-65
2021/04/10 06:01:55;;;;;;;16.70;9.48;;;;;;;5.33;64.39;99719.34;232822;1174;115986;-66
2021/04/10 06:06:58;;;;;;;11.30;6.33;;;;;;;5.79;62.50;99718.58;233245;1174;115798;-64
2021/04/10 06:12:03;;;;;;;15.83;9.10;;;;;;;6.46;61.92;99725.40;233497;1174;115983;-65
2021/04/10 06:17:09;;;;;;;13.15;7.25;;;;;;;7.07;60.34;99733.72;233158;1173;115898;-66
2021/04/10 06:22:13;;;;;;;12.97;8.30;;;;;;;7.57;59.18;99739.14;232639;1174;116025;-65
2021/04/10 06:27:17;;;;;;;13.93;9.63;;;;;;;8.13;58.79;99732.95;233785;1174;116120;-66
2021/04/10 06:32:22;;;;;;;8.90;6.67;;;;;;;8.55;55.94;99720.72;233735;1174;115936;-64
2021/04/10 06:37:26;;;;;;;11.53;8.63;;;;;;;8.97;54.75;99710.98;235128;1174;115131;-65
2021/04/10 06:42:30;;;;;;;10.30;8.90;;;;;;;9.50;53.49;99715.54;235138;1174;114577;-66
2021/04/10 06:47:35;;;;;;;16.97;7.27;;;;;;;9.96;52.51;99706.82;235197;1173;115911;-66
2021/04/10 06:52:41;;;;;;;12.55;8.55;;;;;;;10.32;51.91;99717.27;233632;1174;115395;-65
2021/04/10 06:58:24;;;;;;;9.97;7.70;;;;;;;10.64;49.29;99692.88;234688;1174;115735;-65
2021/04/10 07:03:28;;;;;;;9.30;8.17;;;;;;;10.77;48.82;99712.06;232787;1175;116598;-67
2021/04/10 07:08:32;;;;;;;13.73;7.50;;;;;;;11.00;48.58;99713.06;233823;1174;209510;-65
2021/04/10 07:13:35;;;;;;;8.93;6.00;;;;;;;11.22;46.58;99710.52;232869;1174;116134;-64
2021/04/10 07:18:39;;;;;;;16.85;8.55;;;;;;;12.22;44.96;99713.25;232838;1174;115148;-67
2021/04/10 07:23:44;;;;;;;10.93;8.13;;;;;;;13.52;41.58;99716.90;233318;1167;115961;-66
2021/04/10 07:28:48;;;;;;;12.98;8.80;;;;;;;13.78;42.41;99721.41;233216;1171;115230;-66
2021/04/10 07:34:00;;;;;;;18.85;10.20;;;;;;;14.35;39.60;99718.06;232895;1174;116279;-68
2021/04/10 07:39:04;;;;;;;10.27;9.20;;;;;;;14.63;40.59;99722.27;232564;1174;115668;-67
2021/04/10 07:44:08;;;;;;;14.83;9.70;;;;;;;14.83;40.40;99718.84;232463;1173;115088;-65
2021/04/10 07:49:12;;;;;;;13.00;9.27;;;;;;;15.03;41.84;99707.36;232296;1172;115747;-65
2021/04/10 07:54:25;;;;;;;18.93;10.25;;;;;;;15.05;39.13;99706.02;232613;1174;116059;-66
2021/04/10 07:59:30;;;;;;;9.88;7.48;;;;;;;15.03;37.98;99712.73;232361;1174;115928;-69
2021/04/10 08:04:34;;;;;;;13.65;9.95;;;;;;;15.11;39.31;99721.08;232454;1174;114703;-68
2021/04/10 08:09:40;;;;;;;15.33;9.03;;;;;;;15.39;41.16;99721.67;232376;1174;116127;-68
2021/04/10 08:14:45;;;;;;;11.53;6.83;;;;;;;15.36;38.26;99724.89;232316;1174;115590;-67
2021/04/10 08:19:48;;;;;;;23.70;10.83;;;;;;;15.57;38.60;99717.71;233711;1175;115142;-69
2021/04/10 08:24:51;;;;;;;14.23;8.45;;;;;;;15.95;38.42;99713.65;233809;1173;115492;-67
2021/04/10 08:29:54;;;;;;;17.40;9.15;;;;;;;16.14;37.89;99720.10;232676;1174;116039;-63
2021/04/10 08:34:57;;;;;;;16.85;9.03;;;;;;;16.46;37.12;99714.38;234991;1174;116443;-66
2021/04/10 08:40:00;;;;;;;13.98;9.13;;;;;;;16.71;36.52;99713.51;235078;1174;114791;-65
2021/04/10 08:45:06;;;;;;;12.28;8.78;;;;;;;16.92;37.43;99706.95;234400;1174;115976;-66
2021/04/10 08:50:13;;;;;;;12.93;8.63;;;;;;;16.89;35.47;99704.80;233659;1174;116695;-63
2021/04/10 08:55:16;;;;;;;10.95;8.35;;;;;;;16.83;35.76;99716.67;234204;1174;115590;-65
2021/04/10 09:00:25;;;;;;;12.25;7.88;;;;;;;16.90;36.34;99719.88;232393;1174;115540;-65
2021/04/10 09:05:52;;;;;;;13.75;9.15;;;;;;;17.24;36.04;99727.23;233688;1174;116349;-70
2021/04/10 09:10:59;;;;;;;7.37;5.77;;;;;;;17.21;32.37;99731.30;232371;1170;115285;-68
2021/04/10 09:16:25;;;;;;;12.45;9.35;;;;;;;17.45;36.90;99731.41;232680;1174;114940;-66
2021/04/10 09:21:40;;;;;;;15.18;8.73;;;;;;;17.67;33.12;99741.81;232965;1174;115322;-64
2021/04/10 09:27:04;;;;;;;11.65;8.18;;;;;;;17.90;33.81;99742.98;233580;1174;115508;-66
2021/04/10 09:32:09;;;;;;;12.07;7.60;;;;;;;18.20;33.18;99737.31;232488;1174;115600;-66
2021/04/10 09:37:21;;;;;;;9.07;7.27;;;;;;;18.21;31.64;99744.31;233152;1174;115954;-66
2021/04/10 09:48:02;;;;;;;10.30;6.77;;;;;;;17.98;29.74;99753.16;232879;1174;115501;-66
2021/04/10 09:53:12;;;;;;;9.63;7.57;;;;;;;17.99;33.44;99754.78;232955;1176;115643;-65
2021/04/10 09:58:20;;;;;;;9.43;6.55;;;;;;;17.81;30.68;99748.97;232462;1174;114822;-65
2021/04/10 10:03:24;;;;;;;12.15;7.03;;;;;;;17.77;31.78;99756.00;233621;1170;116020;-66
2021/04/10 10:08:44;;;;;;;10.90;7.90;;;;;;;17.75;31.27;99755.48;233316;1174;115520;-65
2021/04/10 10:13:54;;;;;;;28.37;6.60;;;;;;;17.75;29.29;99749.28;232681;1174;116408;-67
2021/04/10 10:18:59;;;;;;;8.88;6.53;;;;;;;17.82;31.64;99737.09;233624;1174;117217;-67
2021/04/10 10:24:02;;;;;;;6.70;6.10;;;;;;;17.89;31.71;99742.17;232885;1175;116323;-65
2021/04/10 10:29:16;;;;;;;8.15;6.35;;;;;;;18.01;29.52;99749.91;232661;1174;116819;-66
2021/04/10 10:34:25;;;;;;;8.75;6.90;;;;;;;18.01;30.67;99739.92;233254;1174;116319;-67
2021/04/10 10:39:30;;;;;;;9.70;7.78;;;;;;;17.72;30.35;99747.98;233566;1174;116152;-66
2021/04/10 10:44:36;;;;;;;8.88;7.73;;;;;;;17.74;31.99;99748.47;234222;1174;115817;-67
2021/04/10 10:49:40;;;;;;;10.73;6.53;;;;;;;17.49;31.42;99737.85;233594;1176;116920;-67
2021/04/10 10:54:47;;;;;;;8.10;6.08;;;;;;;17.27;31.74;99743.66;234492;1174;117361;-67
2021/04/10 10:59:50;;;;;;;7.12;5.64;;;;;;;17.16;31.47;99745.59;233532;1174;116021;-67
2021/04/10 11:04:55;;;;;;;8.50;6.48;;;;;;;17.64;30.59;99743.15;233139;1174;115975;-65
2021/04/10 11:09:59;;;;;;;10.50;6.40;;;;;;;17.79;30.24;99736.85;232509;1174;116231;-66
2021/04/10 11:15:04;;;;;;;8.20;6.53;;;;;;;18.01;30.44;99728.33;232296;1174;117803;-69
2021/04/10 11:20:34;;;;;;;9.78;4.68;;;;;;;18.27;29.05;99718.89;232446;1174;115640;-65
2021/04/10 11:25:48;;;;;;;7.65;5.75;;;;;;;18.66;29.65;99712.53;232662;1175;116016;-67
2021/04/10 11:31:06;;;;;;;9.60;7.28;;;;;;;18.88;31.02;99720.12;232371;1174;116270;-66
2021/04/10 11:36:10;;;;;;;6.75;5.65;;;;;;;18.78;29.46;99724.55;232710;1176;116274;-67
2021/04/10 11:41:13;;;;;;;11.60;7.28;;;;;;;18.44;27.95;99726.53;232559;1174;116334;-66
2021/04/10 11:46:15;;;;;;;8.03;7.23;;;;;;;18.26;28.86;99719.17;232529;1176;116668;-66
2021/04/10 11:51:25;;;;;;;7.95;7.15;;;;;;;18.13;30.07;99716.05;232351;1174;116142;-67
2021/04/10 11:56:31;;;;;;;8.07;6.17;;;;;;;17.89;30.98;99706.31;232644;1174;115954;-65
2021/04/10 12:01:48;;;;;;;7.60;5.24;;;;;;;17.60;30.40;99717.84;232903;1174;116341;-66
2021/04/10 12:07:06;;;;;;;8.33;5.37;;;;;;;17.40;30.95;99707.22;232730;1174;116390;-66
2021/04/10 12:12:10;;;;;;;9.23;6.60;;;;;;;17.13;33.04;99715.71;232672;1173;116208;-66
2021/04/10 12:17:14;;;;;;;7.30;5.80;;;;;;;16.88;32.12;99715.84;232640;1174;116218;-68
2021/04/10 12:22:18;;;;;;;5.95;5.40;;;;;;;16.72;32.05;99712.43;232676;1174;116700;-65
2021/04/10 12:27:20;;;;;;;11.50;6.80;;;;;;;16.65;31.40;99710.02;233114;1174;116067;-66
2021/04/10 12:32:23;;;;;;;4.65;4.00;;;;;;;16.60;32.24;99706.52;234076;1174;116168;-66
2021/04/10 12:37:26;;;;;;;6.68;5.38;;;;;;;16.57;32.38;99709.75;235126;1174;115318;-66
2021/04/10 12:42:30;;;;;;;10.05;6.15;;;;;;;16.63;33.59;99716.73;235225;1174;115049;-66
2021/04/10 12:47:33;;;;;;;11.65;5.60;;;;;;;16.56;32.87;99713.52;233984;1174;116619;-67
2021/04/10 12:52:38;;;;;;;5.98;4.98;;;;;;;16.59;34.54;99708.40;234270;1174;115974;-67
2021/04/10 12:57:41;;;;;;;6.83;4.68;;;;;;;16.63;32.75;99714.04;235033;1174;116423;-68
2021/04/10 13:02:45;;;;;;;4.83;4.43;;;;;;;16.60;32.73;99714.59;233026;1173;115963;-66
2021/04/10 13:07:49;;;;;;;5.33;4.83;;;;;;;16.54;34.20;99712.98;232708;1174;116142;-66
2021/04/10 13:12:52;;;;;;;11.13;5.03;;;;;;;16.37;31.76;99721.39;233928;1174;117648;-66
2021/04/10 13:17:55;;;;;;;5.28;4.78;;;;;;;16.27;33.71;99708.76;233692;1174;117582;-67
2021/04/10 13:22:59;;;;;;;12.70;5.47;;;;;;;16.15;35.20;99702.89;232566;1174;117609;-67
2021/04/10 13:28:02;;;;;;;5.15;4.65;;;;;;;16.00;35.60;99700.20;232484;1175;116621;-67
2021/04/10 13:33:06;;;;;;;5.40;4.90;;;;;;;15.90;35.81;99719.05;232432;1175;116202;-66
2021/04/10 13:38:09;;;;;;;8.30;6.17;;;;;;;15.77;36.71;99721.20;232663;1174;117406;-66
2021/04/10 13:43:12;;;;;;;5.85;5.23;;;;;;;15.54;35.84;99720.89;232579;1176;117341;-65
2021/04/10 13:48:24;;;;;;;4.93;4.45;;;;;;;15.26;35.04;99717.64;233068;1172;116877;-66
2021/04/10 13:53:27;;;;;;;5.73;4.58;;;;;;;15.11;35.33;99715.71;233627;1175;115921;-67
2021/04/10 13:58:30;;;;;;;6.63;4.25;;;;;;;14.98;35.38;99716.20;232760;1174;117089;-68
2021/04/10 14:03:34;;;;;;;9.13;5.90;;;;;;;14.93;37.01;99726.94;233561;1174;116642;-66
2021/04/10 14:08:38;;;;;;;7.40;5.10;;;;;;;14.83;36.11;99730.39;232612;1169;115687;-67
2021/04/10 14:13:43;;;;;;;5.18;3.50;;;;;;;14.72;37.15;99728.72;233361;1174;203289;-67
2021/04/10 14:18:45;;;;;;;10.90;4.70;;;;;;;14.72;37.72;99727.91;233093;1177;115960;-67
2021/04/10 14:23:52;;;;;;;5.57;4.03;;;;;;;14.70;36.91;99732.73;233103;1174;116368;-66
2021/04/10 14:28:55;;;;;;;9.70;7.30;;;;;;;14.62;40.28;99725.20;233194;1174;116019;-67
2021/04/10 14:34:03;;;;;;;11.10;7.40;;;;;;;14.57;40.42;99735.91;233590;1174;116928;-68
2021/04/10 14:39:07;;;;;;;9.05;8.15;;;;;;;14.50;42.94;99733.45;232942;1174;116487;-66
2021/04/10 14:44:10;;;;;;;12.20;7.48;;;;;;;14.37;43.13;99744.63;233215;1175;117058;-66
2021/04/10 14:49:14;;;;;;;15.23;9.15;;;;;;;14.38;42.19;99743.53;234131;1174;116230;-67
2021/04/10 14:54:18;;;;;;;14.83;8.73;;;;;;;14.31;41.22;99742.98;235193;1174;117282;-67
2021/04/10 14:59:22;;;;;;;14.85;9.28;;;;;;;14.26;41.44;99749.11;235167;1174;116185;-67
2021/04/10 15:04:26;;;;;;;20.20;11.10;;;;;;;14.20;42.99;99752.01;235167;1176;116103;-66
2021/04/10 15:09:29;;;;;;;16.95;10.00;;;;;;;14.16;40.63;99754.39;234871;1174;116493;-66
2021/04/10 15:14:32;;;;;;;13.20;9.90;;;;;;;14.14;40.11;99759.20;234931;1174;116237;-66
2021/04/10 15:19:35;;;;;;;16.03;10.60;;;;;;;14.10;40.58;99764.27;232328;1174;116845;-67
2021/04/10 15:24:40;;;;;;;20.27;11.23;;;;;;;14.07;42.75;99774.69;233828;1174;117506;-67
2021/04/10 15:29:44;;;;;;;23.57;11.80;;;;;;;13.99;43.21;99780.55;232651;1175;116968;-66
2021/04/10 15:34:50;;;;;;;19.95;12.73;;;;;;;13.77;45.87;99786.77;233514;1174;116843;-66
2021/04/10 15:39:54;;;;;;;22.67;13.17;;;;;;;13.68;45.90;99796.34;233773;1174;115391;-67
2021/04/10 15:44:59;;;;;;;20.60;14.70;;;;;;;13.52;45.55;99788.40;232954;1174;117282;-66
2021/04/10 15:50:03;;;;;;;29.80;15.60;;;;;;;13.41;47.67;99790.19;232622;1174;116817;-66
2021/04/10 15:55:07;;;;;;;26.23;15.37;;;;;;;13.42;48.63;99794.48;233332;1174;117637;-66
2021/04/10 16:00:11;;;;;;;20.03;13.90;;;;;;;13.28;48.06;99785.20;232475;1174;117278;-67
2021/04/10 16:05:15;;;;;;;27.67;15.83;;;;;;;13.09;48.76;99792.73;232925;1174;116304;-66
2021/04/10 16:10:19;;;;;;;25.45;14.23;;;;;;;12.99;50.58;99803.30;233120;1174;115497;-67
2021/04/10 16:15:21;;;;;;;23.02;15.33;;;;;;;12.89;49.48;99803.17;232521;1174;116088;-67
2021/04/10 16:20:24;;;;;;;25.58;14.95;;;;;;;12.77;53.19;99801.44;232548;1174;117149;-67
2021/04/10 16:25:29;;;;;;;25.50;14.25;;;;;;;12.66;53.23;99812.23;232546;1174;115635;-66
2021/04/10 16:30:32;;;;;;;20.73;16.97;;;;;;;12.52;52.61;99810.97;234151;1170;115569;-66
2021/04/10 16:35:35;;;;;;;27.35;14.88;;;;;;;12.43;52.52;99822.08;232778;1174;115975;-66
2021/04/10 16:40:38;;;;;;;33.30;16.35;;;;;;;12.35;51.95;99822.48;233262;1174;115226;-67
2021/04/10 16:45:41;;;;;;;28.80;16.78;;;;;;;12.30;52.07;99824.25;233349;1174;116270;-66
2021/04/10 16:50:44;;;;;;;31.23;16.37;;;;;;;12.21;51.92;99826.55;234122;1171;115423;-67
2021/04/10 16:55:58;;;;;;;26.80;16.37;;;;;;;12.16;52.33;99829.13;235122;1174;115756;-67
2021/04/10 17:01:01;;;;;;;27.68;16.53;;;;;;;12.12;52.91;99836.82;235025;1174;115272;-67
2021/04/10 17:06:04;;;;;;;27.30;16.60;;;;;;;12.04;52.60;99844.42;234945;1174;115178;-67
2021/04/10 17:11:08;;;;;;;29.03;17.03;;;;;;;11.96;52.82;99852.81;234910;1174;117105;-68
2021/04/10 17:16:11;;;;;;;33.00;17.93;;;;;;;11.87;52.86;99856.95;233828;1174;116399;-67
2021/04/10 17:21:14;;;;;;;30.77;17.63;;;;;;;11.72;53.47;99873.46;233244;1167;115276;-66
2021/04/10 17:26:17;;;;;;;29.93;18.83;;;;;;;11.58;53.85;99872.95;233858;1174;116851;-67
2021/04/10 17:31:20;;;;;;;31.95;19.48;;;;;;;11.44;54.09;99877.74;233098;1174;116152;-67
2021/04/10 17:36:24;;;;;;;36.97;19.33;;;;;;;11.28;54.70;99883.83;233667;1174;116016;-67
2021/04/10 17:41:27;;;;;;;29.78;19.85;;;;;;;11.17;54.92;99887.33;233800;1174;115608;-66
2021/04/10 17:46:31;;;;;;;36.50;18.08;;;;;;;11.05;55.17;99891.85;232966;1174;115962;-66
2021/04/10 17:51:35;;;;;;;32.83;20.55;;;;;;;10.95;55.91;99894.31;232994;1174;116041;-68
2021/04/10 17:56:38;;;;;;;31.40;19.65;;;;;;;10.84;56.20;99903.94;232272;1174;115707;-67
2021/04/10 18:01:42;;;;;;;35.53;21.15;;;;;;;10.73;57.84;99912.73;232701;1174;115799;-69
2021/04/10 18:06:48;;;;;;;33.48;20.20;;;;;;;10.64;57.69;99911.47;232561;1174;115337;-68
2021/04/10 18:11:51;;;;;;;33.88;19.30;;;;;;;10.52;59.83;99915.97;233202;1174;115232;-69
2021/04/10 18:16:57;;;;;;;30.80;20.70;;;;;;;10.42;59.66;99928.00;232804;1174;115327;-68
2021/04/10 18:21:59;;;;;;;29.67;17.47;;;;;;;10.21;59.36;99925.87;233121;1174;115764;-68
2021/04/10 18:27:03;;;;;;;31.60;19.33;;;;;;;10.06;58.99;99930.78;233418;1174;115844;-69
2021/04/10 18:32:09;;;;;;;30.40;17.70;;;;;;;10.03;61.92;99936.56;232370;1174;115915;-69
2021/04/10 18:37:12;;;;;;;26.28;16.35;;;;;;;9.87;59.43;99931.85;232723;1174;116385;-68
2021/04/10 18:42:16;;;;;;;38.45;17.78;;;;;;;9.84;59.60;99943.76;233859;1174;116002;-66
2021/04/10 18:47:20;;;;;;;36.88;18.73;;;;;;;9.82;59.94;99942.36;232408;1174;116344;-68
2021/04/10 18:52:24;;;;;;;28.80;20.78;;;;;;;9.76;59.60;99942.23;232476;1174;115769;-67
2021/04/10 18:57:29;;;;;;;30.40;19.95;;;;;;;9.75;60.23;99953.92;233420;1174;116269;-67
2021/04/10 19:02:33;;;;;;;28.75;18.28;;;;;;;9.75;60.16;99953.92;235109;1174;117289;-65
2021/04/10 19:07:38;;;;;;;25.80;17.77;;;;;;;9.74;61.73;99954.15;234752;1174;116593;-68
2021/04/10 19:12:41;;;;;;;33.83;20.55;;;;;;;9.75;61.73;99951.27;235126;1174;116396;-66
2021/04/10 19:17:45;;;;;;;25.80;18.58;;;;;;;9.68;61.32;99947.05;234570;1174;116151;-68
2021/04/10 19:22:57;;;;;;;36.67;21.03;;;;;;;9.62;61.47;99953.26;232961;1174;118373;-69
2021/04/10 19:28:02;;;;;;;30.77;19.47;;;;;;;9.57;62.65;99945.13;232592;1174;116007;-68
2021/04/10 19:33:18;;;;;;;35.73;23.47;;;;;;;9.53;63.60;99952.73;232269;1174;117219;-68
2021/04/10 19:38:24;;;;;;;30.98;19.75;;;;;;;9.41;62.83;99951.88;232283;1175;117481;-68
2021/04/10 19:43:34;;;;;;;;;;;;;;;9.24;63.04;99948.16;232651;1175;116445;-67
2021/04/10 19:48:41;;;;;;;33.87;21.53;;;;;;;9.18;63.74;99954.34;233288;1168;103613;-67
2021/04/10 19:53:51;;;;;;;38.78;22.90;;;;;;;9.13;62.60;99967.52;233305;1175;116307;-67
2021/04/10 19:58:56;;;;;;;32.37;19.13;;;;;;;9.06;64.10;99965.73;232627;1174;116848;-67
2021/04/10 20:04:01;;;;;;;34.27;20.87;;;;;;;9.02;64.57;99966.38;232675;1174;116139;-68
2021/04/10 20:09:05;;;;;;;34.75;21.85;;;;;;;8.96;64.49;99962.74;233261;1174;115285;-67
2021/04/10 20:14:09;;;;;;;36.50;22.65;;;;;;;8.89;65.38;99959.32;232733;1174;115451;-67
2021/04/10 20:19:13;;;;;;;31.80;21.17;;;;;;;8.84;64.24;99967.16;232748;1174;115494;-69
2021/04/10 20:24:17;;;;;;;33.98;22.38;;;;;;;8.77;66.02;99966.40;233571;1174;115992;-68
2021/04/10 20:29:22;;;;;;;42.25;27.88;;;;;;;8.77;66.99;99966.40;232547;1174;115013;-68
2021/04/10 20:34:25;;;;;;;49.87;27.73;;;;;;;8.77;67.10;99963.73;232306;1174;115858;-68
2021/04/10 20:39:33;;;;;;;44.78;27.85;;;;;;;8.64;67.16;99972.63;232523;1174;115408;-68
2021/04/10 20:44:40;;;;;;;39.08;26.63;;;;;;;8.49;68.34;99974.79;234146;1174;116477;-68
2021/04/10 20:49:46;;;;;;;39.15;25.05;;;;;;;8.43;68.14;99979.12;234184;1174;116635;-69
2021/04/10 20:54:50;;;;;;;36.45;23.90;;;;;;;8.38;68.68;99984.25;234927;1174;118260;-67
2021/04/10 20:59:54;;;;;;;47.68;28.88;;;;;;;8.33;71.33;99984.08;235119;1174;135651;-66
2021/04/10 21:05:01;;;;;;;50.27;27.40;;;;;;;8.28;71.40;99991.83;234691;1174;115207;-69
2021/04/10 21:10:07;;;;;;;50.68;29.73;;;;;;;8.25;71.72;99992.28;233477;1174;116930;-69
2021/04/10 21:15:11;;;;;;;45.93;27.53;;;;;;;8.30;71.74;99989.78;233464;1174;116318;-69
2021/04/10 21:20:15;;;;;;;51.45;28.40;;;;;;;8.27;71.01;99997.36;232425;1173;117376;-68
2021/04/10 21:25:20;;;;;;;43.98;26.95;;;;;;;8.18;72.65;100003.97;233934;1170;115710;-70
2021/04/10 21:30:25;;;;;;;39.15;26.05;;;;;;;8.17;72.16;100008.46;232511;1174;115411;-67
2021/04/10 21:35:30;;;;;;;34.98;20.80;;;;;;;8.02;71.77;100016.69;232448;1174;116182;-66
2021/04/10 21:40:37;;;;;;;49.35;28.03;;;;;;;7.94;72.45;100024.09;233368;1174;116371;-66
2021/04/10 21:45:43;;;;;;;45.38;28.40;;;;;;;7.94;73.39;100021.44;232917;1174;117166;-66
2021/04/10 21:50:46;;;;;;;43.43;26.73;;;;;;;7.97;72.93;100021.81;232553;1174;115320;-67
2021/04/10 21:55:50;;;;;;;48.08;25.68;;;;;;;7.97;72.45;100015.69;232436;1174;115707;-67
2021/04/10 22:00:57;;;;;;;49.25;27.80;;;;;;;7.89;71.73;100014.11;232533;1174;116699;-65
2021/04/10 22:06:02;;;;;;;40.88;27.28;;;;;;;7.82;72.48;100015.15;232540;1174;115866;-67
2021/04/10 22:11:06;;;;;;;37.23;25.53;;;;;;;7.66;73.31;100024.38;232347;1174;116751;-69
2021/04/10 22:16:14;;;;;;;26.30;17.33;;;;;;;7.42;73.98;100029.33;233687;1174;116172;-68
2021/04/10 22:21:31;;;;;;;41.90;26.50;;;;;;;7.28;74.62;100024.27;232477;1174;116720;-67
2021/04/10 22:26:38;;;;;;;55.50;34.50;;;;;;;7.24;74.96;100018.56;232553;1167;115242;-68
2021/04/10 22:31:44;;;;;;;47.35;32.65;;;;;;;7.18;74.23;100021.21;233857;1167;115644;-67
2021/04/10 22:36:48;;;;;;;;;;;;;;;7.20;76.07;100014.69;232956;1174;115293;-66
2021/04/10 22:41:53;;;;;;;54.35;33.88;;;;;;;7.21;75.50;100010.20;233112;1174;103147;-70
2021/04/10 22:46:57;;;;;;;49.00;30.35;;;;;;;7.11;74.75;100018.56;233275;1174;115242;-65
2021/04/10 22:52:02;;;;;;;52.65;33.83;;;;;;;6.99;74.25;100013.08;234518;1174;116103;-66
2021/04/10 22:57:06;;;;;;;62.35;34.35;;;;;;;6.95;75.69;100005.73;233905;1174;116164;-67
2021/04/10 23:02:09;;;;;;;54.75;33.50;;;;;;;6.97;75.65;100003.70;234793;1174;116522;-69
2021/04/10 23:07:13;;;;;;;61.90;33.03;;;;;;;7.03;75.20;100001.02;234986;1174;115660;-69
2021/04/10 23:12:16;;;;;;;55.20;34.43;;;;;;;7.00;76.00;100006.77;234179;1168;115281;-68
2021/04/10 23:17:19;;;;;;;49.45;29.58;;;;;;;6.85;75.49;100006.14;234376;1174;116527;-68